createdAt,value
2022-09-27T00:01:05.284Z,4.33
2022-09-27T00:03:55.466Z,3.23
2022-09-27T00:06:42.445Z,4.10
2022-09-27T00:09:30.181Z,5.10
2022-09-27T00:12:17.139Z,5.40
2022-09-27T00:15:05.857Z,3.40
2022-09-27T00:17:53.131Z,3.03
2022-09-27T00:20:40.096Z,3.40
2022-09-27T00:23:27.067Z,5.17
2022-09-27T00:26:14.518Z,7.87
2022-09-27T00:29:01.511Z,4.67
2022-09-27T00:31:49.060Z,3.17
2022-09-27T00:34:36.019Z,6.53
2022-09-27T00:37:23.145Z,3.87
2022-09-27T00:40:10.352Z,5.97
2022-09-27T00:42:58.594Z,4.57
2022-09-27T00:45:52.484Z,3.00
2022-09-27T00:48:39.776Z,3.43
2022-09-27T00:51:26.971Z,4.47
2022-09-27T00:54:17.647Z,2.93
2022-09-27T00:57:05.593Z,4.40
2022-09-27T01:00:06.245Z,4.33
2022-09-27T01:02:55.692Z,7.27
2022-09-27T01:05:43.020Z,4.97
2022-09-27T01:08:30.304Z,4.90
2022-09-27T01:11:38.103Z,5.53
2022-09-27T01:15:05.393Z,4.70
2022-09-27T01:18:04.109Z,4.10
2022-09-27T01:21:21.557Z,3.57
2022-09-27T01:24:20.276Z,7.47
2022-09-27T01:27:33.085Z,6.60
2022-09-27T01:30:33.260Z,5.37
2022-09-27T01:33:44.279Z,4.33
2022-09-27T01:37:01.671Z,3.93
2022-09-27T01:39:59.928Z,4.40
2022-09-27T01:43:07.773Z,3.70
2022-09-27T01:46:06.223Z,3.80
2022-09-27T01:48:54.834Z,4.17
2022-09-27T01:51:50.618Z,6.33
2022-09-27T01:54:43.613Z,7.23
2022-09-27T01:57:41.019Z,4.43
2022-09-27T02:00:28.722Z,5.77
2022-09-27T02:03:37.362Z,5.17
2022-09-27T02:06:31.083Z,4.53
2022-09-27T02:09:33.260Z,4.80
2022-09-27T02:12:25.501Z,4.03
2022-09-27T02:15:15.352Z,6.57
2022-09-27T02:18:13.600Z,3.97
2022-09-27T02:21:04.615Z,5.37
2022-09-27T02:23:58.094Z,3.80
2022-09-27T02:26:51.248Z,4.50
2022-09-27T02:29:45.928Z,6.43
2022-09-27T02:32:33.363Z,3.60
2022-09-27T02:35:29.619Z,4.10
2022-09-27T02:38:16.774Z,4.57
2022-09-27T02:41:04.230Z,4.40
2022-09-27T02:43:58.376Z,3.57
2022-09-27T02:47:12.843Z,5.17
2022-09-27T02:50:30.629Z,3.27
2022-09-27T02:53:38.030Z,4.60
2022-09-27T02:56:38.551Z,4.40
2022-09-27T02:59:40.097Z,4.00
2022-09-27T03:02:36.112Z,4.07
2022-09-27T03:05:27.830Z,3.90
2022-09-27T03:08:15.323Z,5.23
2022-09-27T03:11:02.249Z,4.10
2022-09-27T03:14:07.721Z,3.73
2022-09-27T03:16:55.585Z,5.77
2022-09-27T03:19:42.533Z,4.47
2022-09-27T03:22:29.406Z,4.80
2022-09-27T03:25:16.546Z,4.80
2022-09-27T03:28:03.588Z,4.03
2022-09-27T03:30:50.519Z,4.37
2022-09-27T03:33:37.760Z,3.97
2022-09-27T03:36:24.696Z,4.47
2022-09-27T03:39:11.633Z,3.97
2022-09-27T03:41:58.531Z,4.20
2022-09-27T03:44:45.504Z,3.37
2022-09-27T03:47:32.410Z,3.50
2022-09-27T03:50:19.813Z,3.60
2022-09-27T03:53:06.769Z,4.40
2022-09-27T03:55:53.812Z,3.30
2022-09-27T03:58:40.761Z,5.00
2022-09-27T04:01:28.749Z,5.07
2022-09-27T04:04:15.744Z,4.27
2022-09-27T04:07:02.704Z,3.50
2022-09-27T04:09:49.717Z,4.00
2022-09-27T04:12:36.645Z,5.23
2022-09-27T04:15:23.657Z,4.33
2022-09-27T04:18:10.652Z,3.73
2022-09-27T04:20:57.582Z,5.97
2022-09-27T04:23:44.519Z,4.13
2022-09-27T04:26:31.439Z,4.10
2022-09-27T04:29:18.364Z,4.03
2022-09-27T04:32:05.288Z,3.90
2022-09-27T04:35:10.736Z,5.50
2022-09-27T04:37:57.917Z,3.53
2022-09-27T04:40:45.004Z,3.87
2022-09-27T04:43:31.919Z,3.97
2022-09-27T04:46:20.277Z,6.43
2022-09-27T04:49:07.228Z,3.60
2022-09-27T04:51:54.129Z,4.47
2022-09-27T04:54:41.647Z,5.10
2022-09-27T04:57:28.559Z,3.50
2022-09-27T05:00:17.052Z,3.87
2022-09-27T05:03:04.019Z,3.33
2022-09-27T05:05:50.949Z,6.50
2022-09-27T05:08:37.856Z,4.33
2022-09-27T05:11:26.255Z,3.20
2022-09-27T05:14:14.153Z,3.20
2022-09-27T05:17:01.267Z,4.47
2022-09-27T05:19:49.580Z,3.80
2022-09-27T05:22:38.081Z,4.97
2022-09-27T05:25:25.556Z,5.17
2022-09-27T05:28:12.490Z,3.27
2022-09-27T05:30:59.657Z,3.33
2022-09-27T05:33:46.635Z,3.87
2022-09-27T05:36:33.628Z,3.73
2022-09-27T05:39:20.618Z,3.83
2022-09-27T05:42:10.192Z,7.37
2022-09-27T05:44:57.417Z,5.17
2022-09-27T05:47:44.324Z,9.87
2022-09-27T05:50:31.507Z,4.93
2022-09-27T05:53:18.668Z,4.73
2022-09-27T05:56:06.273Z,4.53
2022-09-27T05:58:53.713Z,3.87
2022-09-27T06:01:41.543Z,3.97
2022-09-27T06:04:28.516Z,3.73
2022-09-27T06:07:15.859Z,3.60
2022-09-27T06:10:03.017Z,3.70
2022-09-27T06:12:50.389Z,3.70
2022-09-27T06:15:39.242Z,4.13
2022-09-27T06:18:26.306Z,4.23
2022-09-27T06:21:14.113Z,3.87
2022-09-27T06:24:01.870Z,3.90
2022-09-27T06:26:49.121Z,3.90
2022-09-27T06:29:37.564Z,4.13
2022-09-27T06:32:24.535Z,3.90
2022-09-27T06:35:11.559Z,4.03
2022-09-27T06:37:58.720Z,4.63
2022-09-27T06:40:46.190Z,4.77
2022-09-27T06:43:34.137Z,4.27
2022-09-27T06:46:21.725Z,4.27
2022-09-27T06:49:09.620Z,4.53
2022-09-27T06:51:57.397Z,3.80
2022-09-27T06:54:44.544Z,4.80
2022-09-27T06:57:50.512Z,4.77
2022-09-27T07:00:37.644Z,4.70
2022-09-27T07:03:35.439Z,5.20
2022-09-27T07:06:26.404Z,5.47
2022-09-27T07:09:14.675Z,5.20
2022-09-27T07:12:02.229Z,4.77
2022-09-27T07:14:49.930Z,5.93
2022-09-27T07:17:37.417Z,4.30
2022-09-27T07:20:25.730Z,5.30
2022-09-27T07:23:14.367Z,3.73
2022-09-27T07:26:06.989Z,6.73
2022-09-27T07:28:54.802Z,4.73
2022-09-27T07:31:42.664Z,4.23
2022-09-27T07:34:30.400Z,4.57
2022-09-27T07:37:20.389Z,4.03
2022-09-27T07:40:09.651Z,3.60
2022-09-27T07:42:58.068Z,3.90
2022-09-27T07:45:46.094Z,4.37
2022-09-27T07:48:33.088Z,4.00
2022-09-27T07:51:20.363Z,6.17
2022-09-27T07:54:08.842Z,7.07
2022-09-27T07:56:56.119Z,4.80
2022-09-27T07:59:43.469Z,5.10
2022-09-27T08:02:32.852Z,5.83
2022-09-27T08:05:19.817Z,7.37
2022-09-27T08:08:06.843Z,6.13
2022-09-27T08:10:53.850Z,6.20
2022-09-27T08:13:45.339Z,6.00
2022-09-27T08:16:36.057Z,7.10
2022-09-27T08:19:23.974Z,6.60
2022-09-27T08:22:15.609Z,5.90
2022-09-27T08:25:02.623Z,6.47
2022-09-27T08:28:01.139Z,4.80
2022-09-27T08:30:48.814Z,4.00
2022-09-27T08:33:41.086Z,2.77
2022-09-27T08:36:29.869Z,4.03
2022-09-27T08:39:17.358Z,3.53
2022-09-27T08:42:20.771Z,3.07
2022-09-27T08:45:24.078Z,5.00
2022-09-27T08:48:12.462Z,4.67
2022-09-27T08:51:03.097Z,3.87
2022-09-27T08:54:07.000Z,4.33
2022-09-27T08:56:57.990Z,5.60
2022-09-27T08:59:52.954Z,3.30
2022-09-27T09:02:41.591Z,6.47
2022-09-27T09:05:30.816Z,4.03
2022-09-27T09:08:53.107Z,3.93
2022-09-27T09:12:25.868Z,4.10
2022-09-27T09:15:54.249Z,4.87
2022-09-27T09:19:00.478Z,4.53
2022-09-27T09:21:47.371Z,6.23
2022-09-27T09:24:56.118Z,3.93
2022-09-27T09:28:16.945Z,3.60
2022-09-27T09:31:29.071Z,4.47
2022-09-27T09:34:27.802Z,3.33
2022-09-27T09:37:17.417Z,2.30
2022-09-27T09:40:27.964Z,4.53
2022-09-27T09:43:48.673Z,2.93
2022-09-27T09:46:45.773Z,2.20
2022-09-27T09:50:01.447Z,4.57
2022-09-27T09:52:55.316Z,2.80
2022-09-27T09:55:48.092Z,4.67
2022-09-27T09:58:50.980Z,5.63
2022-09-27T10:01:44.030Z,3.57
2022-09-27T10:04:33.888Z,4.73
2022-09-27T10:07:25.736Z,2.33
2022-09-27T10:10:16.133Z,6.73
2022-09-27T10:13:04.526Z,3.17
2022-09-27T10:16:08.393Z,4.30
2022-09-27T10:19:00.085Z,2.87
2022-09-27T10:21:49.300Z,2.67
2022-09-27T10:24:57.034Z,4.87
2022-09-27T10:27:47.211Z,5.07
2022-09-27T10:30:35.334Z,4.87
2022-09-27T10:33:23.122Z,3.33
2022-09-27T10:36:25.429Z,4.40
2022-09-27T10:39:24.166Z,5.60
2022-09-27T10:42:30.661Z,3.23
2022-09-27T10:45:33.359Z,4.63
2022-09-27T10:48:23.339Z,3.13
2022-09-27T10:51:30.503Z,1.90
2022-09-27T10:54:30.238Z,2.17
2022-09-27T10:57:23.043Z,2.80
2022-09-27T11:00:26.960Z,2.67
2022-09-27T11:03:16.363Z,3.07
2022-09-27T11:06:40.620Z,4.53
2022-09-27T11:09:27.551Z,2.93
2022-09-27T11:12:16.110Z,1.70
2022-09-27T11:15:07.400Z,3.70
2022-09-27T11:18:26.921Z,1.53
2022-09-27T11:21:35.681Z,1.87
2022-09-27T11:25:07.157Z,2.13
2022-09-27T11:28:02.579Z,1.53
2022-09-27T11:31:19.598Z,1.70
2022-09-27T11:34:31.688Z,1.97
2022-09-27T11:37:50.266Z,1.70
2022-09-27T11:41:13.958Z,1.67
2022-09-27T11:44:19.736Z,1.43
2022-09-27T11:47:45.866Z,1.40
2022-09-27T11:50:50.618Z,2.57
2022-09-27T11:54:22.347Z,1.80
2022-09-27T11:57:33.157Z,2.70
2022-09-27T12:00:24.519Z,3.73
2022-09-27T12:03:48.874Z,2.40
2022-09-27T12:07:04.227Z,1.33
2022-09-27T12:09:57.071Z,1.50
2022-09-27T12:12:49.848Z,1.70
2022-09-27T12:15:42.555Z,1.97
2022-09-27T12:18:33.415Z,1.40
2022-09-27T12:21:21.666Z,1.40
2022-09-27T12:24:19.440Z,1.50
2022-09-27T12:27:16.182Z,1.47
2022-09-27T12:30:05.060Z,1.60
2022-09-27T12:33:16.701Z,4.03
2022-09-27T12:36:10.248Z,1.40
2022-09-27T12:39:21.253Z,1.43
2022-09-27T12:42:19.074Z,1.50
2022-09-27T12:45:10.751Z,2.30
2022-09-27T12:48:16.239Z,1.50
2022-09-27T12:51:21.312Z,1.30
2022-09-27T12:54:29.326Z,1.90
2022-09-27T12:57:25.598Z,1.30
2022-09-27T13:00:17.505Z,3.70
2022-09-27T13:04:01.646Z,1.40
2022-09-27T13:07:23.948Z,2.70
2022-09-27T13:10:50.804Z,1.80
2022-09-27T13:13:39.731Z,1.57
2022-09-27T13:16:27.881Z,2.47
2022-09-27T13:19:38.243Z,1.60
2022-09-27T13:22:28.005Z,1.43
2022-09-27T13:25:55.422Z,1.50
2022-09-27T13:28:51.699Z,3.33
2022-09-27T13:31:53.852Z,1.63
2022-09-27T13:34:46.202Z,2.73
2022-09-27T13:37:54.559Z,3.97
2022-09-27T13:40:42.837Z,1.60
2022-09-27T13:43:45.119Z,1.60
2022-09-27T13:46:34.922Z,1.70
2022-09-27T13:49:29.096Z,1.90
2022-09-27T13:52:37.722Z,2.10
2022-09-27T13:55:44.353Z,2.00
2022-09-27T13:58:56.168Z,1.83
2022-09-27T14:01:51.329Z,2.30
2022-09-27T14:05:01.118Z,1.40
2022-09-27T14:07:50.357Z,1.70
2022-09-27T14:10:37.498Z,1.63
2022-09-27T14:13:26.302Z,4.40
2022-09-27T14:16:17.633Z,2.67
2022-09-27T14:19:04.661Z,3.03
2022-09-27T14:22:27.243Z,1.97
2022-09-27T14:25:18.208Z,1.37
2022-09-27T14:28:23.770Z,1.40
2022-09-27T14:31:17.527Z,1.50
2022-09-27T14:34:08.947Z,1.10
2022-09-27T14:37:14.958Z,1.47
2022-09-27T14:40:08.870Z,1.17
2022-09-27T14:42:58.501Z,2.23
2022-09-27T14:45:48.261Z,2.43
2022-09-27T14:48:37.612Z,1.13
2022-09-27T14:51:30.314Z,2.13
2022-09-27T14:54:26.764Z,1.70
2022-09-27T14:57:17.294Z,2.23
2022-09-27T15:00:21.689Z,3.63
2022-09-27T15:03:15.258Z,1.67
2022-09-27T15:06:02.295Z,2.40
2022-09-27T15:08:50.231Z,1.27
2022-09-27T15:11:39.213Z,3.23
2022-09-27T15:14:29.325Z,3.20
2022-09-27T15:17:20.778Z,3.53
2022-09-27T15:20:32.177Z,1.10
2022-09-27T15:23:28.188Z,1.47
2022-09-27T15:26:19.431Z,0.90
2022-09-27T15:29:06.883Z,1.53
2022-09-27T15:32:02.915Z,1.20
2022-09-27T15:34:50.327Z,1.97
2022-09-27T15:37:39.039Z,2.63
2022-09-27T15:40:55.047Z,2.90
2022-09-27T15:43:46.447Z,2.07
2022-09-27T15:46:42.516Z,2.60
2022-09-27T15:49:33.620Z,2.60
2022-09-27T15:52:51.143Z,3.33
2022-09-27T15:55:42.034Z,1.53
2022-09-27T15:58:30.277Z,1.60
2022-09-27T16:01:19.104Z,1.23
2022-09-27T16:04:09.296Z,1.20
2022-09-27T16:06:56.867Z,1.37
2022-09-27T16:09:45.023Z,3.73
2022-09-27T16:12:31.896Z,1.87
2022-09-27T16:15:18.829Z,3.10
2022-09-27T16:18:05.849Z,1.57
2022-09-27T16:20:52.715Z,2.80
2022-09-27T16:23:39.854Z,1.50
2022-09-27T16:26:26.805Z,3.23
2022-09-27T16:29:15.410Z,1.53
2022-09-27T16:32:02.337Z,1.10
2022-09-27T16:34:50.000Z,2.77
2022-09-27T16:37:36.990Z,2.33
2022-09-27T16:40:26.559Z,2.40
2022-09-27T16:43:13.508Z,2.20
2022-09-27T16:49:39.793Z,3.70
2022-09-27T16:52:26.758Z,3.17
2022-09-27T16:55:15.797Z,4.93
2022-09-27T16:58:05.303Z,1.90
2022-09-27T17:00:52.511Z,2.87
2022-09-27T17:03:39.839Z,2.63
2022-09-27T17:06:28.486Z,3.60
2022-09-27T17:09:15.324Z,3.30
2022-09-27T17:12:02.249Z,2.33
2022-09-27T17:14:49.213Z,4.83
2022-09-27T17:17:36.091Z,3.77
2022-09-27T17:20:23.029Z,2.50
2022-09-27T17:23:10.343Z,3.20
2022-09-27T17:26:09.287Z,2.30
2022-09-27T17:28:57.407Z,2.97
2022-09-27T17:31:44.908Z,2.50
2022-09-27T17:34:32.361Z,2.77
2022-09-27T17:37:19.509Z,3.23
2022-09-27T17:40:06.781Z,3.10
2022-09-27T17:42:53.706Z,3.57
2022-09-27T17:45:40.556Z,5.70
2022-09-27T17:48:46.229Z,1.83
2022-09-27T17:51:35.434Z,3.83
2022-09-27T17:54:26.174Z,2.33
2022-09-27T17:57:13.670Z,3.60
2022-09-27T18:00:00.760Z,2.57
2022-09-27T18:02:47.826Z,3.27
2022-09-27T18:05:37.295Z,4.90
2022-09-27T18:08:29.342Z,3.07
2022-09-27T18:11:18.956Z,3.53
2022-09-27T18:14:06.751Z,3.50
2022-09-27T18:16:57.603Z,1.57
2022-09-27T18:19:44.658Z,3.07
2022-09-27T18:22:31.657Z,2.03
2022-09-27T18:25:18.553Z,1.73
2022-09-27T18:28:05.717Z,3.03
2022-09-27T18:33:57.832Z,1.73
2022-09-27T18:36:44.756Z,3.20
2022-09-27T18:39:31.640Z,1.60
2022-09-27T18:42:18.492Z,1.93
2022-09-27T18:45:06.073Z,2.93
2022-09-27T18:47:52.995Z,2.60
2022-09-27T18:50:39.922Z,1.77
2022-09-27T18:53:26.876Z,2.53
2022-09-27T18:56:16.609Z,3.80
2022-09-27T18:59:03.487Z,3.30
2022-09-27T19:01:50.712Z,4.47
2022-09-27T19:04:37.853Z,2.97
2022-09-27T19:07:24.777Z,2.33
2022-09-27T19:10:11.770Z,2.43
2022-09-27T19:12:58.674Z,4.10
2022-09-27T19:15:55.794Z,2.53
2022-09-27T19:18:42.721Z,2.07
2022-09-27T19:21:29.755Z,2.33
2022-09-27T19:24:18.097Z,2.07
2022-09-27T19:27:04.980Z,4.23
2022-09-27T19:29:51.940Z,2.57
2022-09-27T19:32:38.790Z,2.33
2022-09-27T19:35:25.898Z,3.30
2022-09-27T19:38:13.105Z,3.73
2022-09-27T19:41:00.146Z,2.43
2022-09-27T19:43:51.805Z,5.33
2022-09-27T19:46:39.564Z,3.17
2022-09-27T19:49:26.707Z,4.87
2022-09-27T19:52:13.614Z,2.73
2022-09-27T19:55:00.570Z,5.13
2022-09-27T19:57:47.518Z,2.40
2022-09-27T20:00:34.382Z,4.80
2022-09-27T20:03:21.259Z,4.33
2022-09-27T20:06:10.789Z,2.70
2022-09-27T20:08:58.481Z,4.03
2022-09-27T20:11:46.146Z,4.17
2022-09-27T20:14:33.005Z,5.17
2022-09-27T20:17:19.891Z,5.13
2022-09-27T20:20:07.421Z,4.13
2022-09-27T20:22:54.280Z,4.83
2022-09-27T20:25:43.137Z,4.27
2022-09-27T20:28:30.356Z,4.60
2022-09-27T20:31:22.676Z,5.07
2022-09-27T20:34:15.089Z,5.73
2022-09-27T20:37:01.961Z,6.87
2022-09-27T20:39:49.396Z,4.77
2022-09-27T20:42:36.288Z,5.67
2022-09-27T20:45:23.260Z,6.63
2022-09-27T20:48:10.129Z,6.10
2022-09-27T20:51:04.667Z,4.47
2022-09-27T20:53:52.109Z,5.07
2022-09-27T20:56:43.254Z,7.03
2022-09-27T20:59:30.209Z,5.67
2022-09-27T21:02:17.322Z,6.87
2022-09-27T21:05:04.376Z,4.87
2022-09-27T21:07:54.194Z,4.77
2022-09-27T21:10:41.060Z,6.47
2022-09-27T21:13:28.171Z,5.27
2022-09-27T21:16:21.024Z,5.20
2022-09-27T21:19:09.346Z,4.63
2022-09-27T21:21:56.264Z,5.47
2022-09-27T21:24:43.146Z,6.17
2022-09-27T21:27:30.605Z,5.73
2022-09-27T21:30:17.515Z,5.43
2022-09-27T21:33:04.380Z,6.83
2022-09-27T21:35:51.253Z,6.47
2022-09-27T21:38:38.964Z,7.33
2022-09-27T21:41:27.077Z,6.73
2022-09-27T21:44:14.059Z,7.33
2022-09-27T21:47:01.010Z,6.93
2022-09-27T21:49:48.241Z,7.83
2022-09-27T21:52:35.108Z,7.20
2022-09-27T21:55:21.989Z,5.53
2022-09-27T21:58:09.078Z,7.57
2022-09-27T22:00:56.055Z,8.93
2022-09-27T22:03:43.481Z,8.90
2022-09-27T22:06:32.779Z,6.50
2022-09-27T22:09:19.754Z,6.97
2022-09-27T22:12:06.654Z,8.03
2022-09-27T22:14:53.545Z,9.23
2022-09-27T22:17:40.474Z,8.53
2022-09-27T22:20:27.750Z,8.27
2022-09-27T22:23:14.677Z,9.80
2022-09-27T22:26:12.029Z,7.87
2022-09-27T22:28:59.586Z,8.13
2022-09-27T22:31:46.891Z,9.90
2022-09-27T22:34:33.988Z,10.00
2022-09-27T22:37:20.910Z,10.73
2022-09-27T22:40:08.310Z,10.20
2022-09-27T22:42:55.161Z,11.27
2022-09-27T22:45:42.028Z,9.27
2022-09-27T22:48:30.672Z,12.33
2022-09-27T22:51:18.185Z,10.87
2022-09-27T22:54:05.257Z,12.57
2022-09-27T22:56:57.090Z,10.67
2022-09-27T22:59:44.181Z,11.33
2022-09-27T23:02:31.066Z,12.03
2022-09-27T23:05:17.935Z,14.07
2022-09-27T23:08:05.047Z,13.70
2022-09-27T23:10:51.931Z,12.10
2022-09-27T23:13:41.490Z,12.07
2022-09-27T23:16:28.437Z,15.20
2022-09-27T23:19:16.302Z,15.20
2022-09-27T23:22:03.630Z,13.37
2022-09-27T23:24:50.517Z,12.87
2022-09-27T23:27:45.495Z,15.33
2022-09-27T23:30:32.874Z,16.53
2022-09-27T23:33:20.016Z,13.43
2022-09-27T23:36:12.748Z,13.87
2022-09-27T23:39:01.425Z,14.30
2022-09-27T23:41:48.372Z,14.33
2022-09-27T23:44:35.307Z,13.90
2022-09-27T23:47:22.898Z,14.10
2022-09-27T23:50:09.996Z,14.37
2022-09-27T23:52:56.870Z,15.63
2022-09-27T23:55:43.771Z,12.43
2022-09-27T23:58:34.804Z,11.20
